createdAt,value
2017-07-07T00:00:22.900Z,21.00
2017-07-07T00:01:23.633Z,16.00
2017-07-07T00:02:24.361Z,22.00
2017-07-07T00:03:25.087Z,19.00
2017-07-07T00:04:25.818Z,28.00
2017-07-07T00:05:26.545Z,14.00
2017-07-07T00:06:27.269Z,16.00
2017-07-07T00:07:28.021Z,13.00
2017-07-07T00:08:28.749Z,23.00
2017-07-07T00:09:29.475Z,26.00
2017-07-07T00:10:30.201Z,17.00
2017-07-07T00:11:30.941Z,14.00
2017-07-07T00:12:31.686Z,20.00
2017-07-07T00:13:32.419Z,21.00
2017-07-07T00:14:33.143Z,11.00
2017-07-07T00:15:33.868Z,27.00
2017-07-07T00:16:34.594Z,11.00
2017-07-07T00:17:35.321Z,18.00
2017-07-07T00:18:36.050Z,17.00
2017-07-07T00:19:36.782Z,13.00
2017-07-07T00:20:37.512Z,15.00
2017-07-07T00:21:38.235Z,18.00
2017-07-07T00:22:38.967Z,25.00
2017-07-07T00:23:39.697Z,13.00
2017-07-07T00:24:40.422Z,14.00
2017-07-07T00:25:41.150Z,15.00
2017-07-07T00:26:41.879Z,14.00
2017-07-07T00:27:42.609Z,16.00
2017-07-07T00:28:43.357Z,9.00
2017-07-07T00:29:44.089Z,16.00
2017-07-07T00:30:44.842Z,16.00
2017-07-07T00:31:45.572Z,14.00
2017-07-07T00:32:46.301Z,12.00
2017-07-07T00:33:47.027Z,13.00
2017-07-07T00:34:47.754Z,15.00
2017-07-07T00:35:48.482Z,16.00
2017-07-07T00:36:49.210Z,11.00
2017-07-07T00:37:49.941Z,11.00
2017-07-07T00:38:50.664Z,17.00
2017-07-07T00:39:51.390Z,19.00
2017-07-07T00:40:52.119Z,11.00
2017-07-07T00:41:52.844Z,15.00
2017-07-07T00:42:53.572Z,8.00
2017-07-07T00:43:54.297Z,15.00
2017-07-07T00:44:55.026Z,15.00
2017-07-07T00:45:55.753Z,15.00
2017-07-07T00:46:56.479Z,10.00
2017-07-07T00:47:57.206Z,15.00
2017-07-07T00:48:57.932Z,10.00
2017-07-07T00:49:58.656Z,14.00
2017-07-07T00:50:59.388Z,13.00
2017-07-07T00:52:00.115Z,12.00
2017-07-07T00:53:00.839Z,9.00
2017-07-07T00:54:01.563Z,8.00
2017-07-07T00:55:02.291Z,12.00
2017-07-07T00:56:03.015Z,10.00
2017-07-07T00:57:03.743Z,14.00
2017-07-07T00:58:04.466Z,10.00
2017-07-07T00:59:05.196Z,9.00
2017-07-07T01:00:05.917Z,9.00
2017-07-07T01:01:06.647Z,8.00
2017-07-07T01:02:07.396Z,13.00
2017-07-07T01:03:08.123Z,13.00
2017-07-07T01:04:08.850Z,8.00
2017-07-07T01:05:09.578Z,11.00
2017-07-07T01:06:10.306Z,14.00
2017-07-07T01:07:11.030Z,8.00
2017-07-07T01:08:11.757Z,8.00
2017-07-07T01:09:12.482Z,9.00
2017-07-07T01:10:13.208Z,14.00
2017-07-07T01:11:13.938Z,10.00
2017-07-07T01:12:14.662Z,15.00
2017-07-07T01:13:15.410Z,9.00
2017-07-07T01:14:16.137Z,12.00
2017-07-07T01:15:16.886Z,16.00
2017-07-07T01:16:17.638Z,12.00
2017-07-07T01:17:18.366Z,11.00
2017-07-07T01:18:19.088Z,8.00
2017-07-07T01:19:19.820Z,14.00
2017-07-07T01:20:20.543Z,10.00
2017-07-07T01:21:21.273Z,7.00
2017-07-07T01:22:22.003Z,11.00
2017-07-07T01:23:22.724Z,12.00
2017-07-07T01:24:23.450Z,11.00
2017-07-07T01:25:24.176Z,9.00
2017-07-07T01:26:24.922Z,20.00
2017-07-07T01:27:25.670Z,12.00
2017-07-07T01:28:26.396Z,16.00
2017-07-07T01:29:27.125Z,12.00
2017-07-07T01:30:27.850Z,15.00
2017-07-07T01:31:28.577Z,9.00
2017-07-07T01:32:29.303Z,8.00
2017-07-07T01:33:30.028Z,9.00
2017-07-07T01:34:30.760Z,17.00
2017-07-07T01:35:31.510Z,11.00
2017-07-07T01:36:32.232Z,11.00
2017-07-07T01:37:32.964Z,12.00
2017-07-07T01:38:33.685Z,11.00
2017-07-07T01:39:34.413Z,20.00
2017-07-07T01:40:35.143Z,13.00
2017-07-07T01:41:35.890Z,9.00
2017-07-07T01:42:36.614Z,9.00
2017-07-07T01:43:37.343Z,10.00
2017-07-07T01:44:38.069Z,14.00
2017-07-07T01:45:38.804Z,14.00
2017-07-07T01:46:39.526Z,8.00
2017-07-07T01:47:40.252Z,11.00
2017-07-07T01:48:40.978Z,17.00
2017-07-07T01:49:41.704Z,17.00
2017-07-07T01:50:42.434Z,11.00
2017-07-07T01:51:43.161Z,11.00
2017-07-07T01:52:43.910Z,12.00
2017-07-07T01:53:44.637Z,14.00
2017-07-07T01:54:45.391Z,13.00
2017-07-07T01:55:46.114Z,9.00
2017-07-07T01:56:46.840Z,21.00
2017-07-07T01:57:47.567Z,14.00
2017-07-07T01:58:48.295Z,9.00
2017-07-07T01:59:49.022Z,16.00
2017-07-07T02:00:49.756Z,15.00
2017-07-07T02:01:50.479Z,15.00
2017-07-07T02:02:51.204Z,13.00
2017-07-07T02:03:51.934Z,14.00
2017-07-07T02:04:52.658Z,14.00
2017-07-07T02:05:53.390Z,17.00
2017-07-07T02:06:54.121Z,13.00
2017-07-07T02:07:54.846Z,15.00
2017-07-07T02:08:55.574Z,21.00
2017-07-07T02:09:56.302Z,19.00
2017-07-07T02:10:57.030Z,15.00
2017-07-07T02:11:57.757Z,18.00
2017-07-07T02:12:58.485Z,26.00
2017-07-07T02:13:59.213Z,22.00
2017-07-07T02:14:59.940Z,35.00
2017-07-07T02:16:00.667Z,15.00
2017-07-07T02:17:01.399Z,17.00
2017-07-07T02:18:02.125Z,26.00
2017-07-07T02:19:02.853Z,13.00
2017-07-07T02:20:03.582Z,17.00
2017-07-07T02:21:04.308Z,23.00
2017-07-07T02:22:05.035Z,19.00
2017-07-07T02:23:05.763Z,15.00
2017-07-07T02:24:06.489Z,26.00
2017-07-07T02:25:07.218Z,20.00
2017-07-07T02:26:07.943Z,18.00
2017-07-07T02:27:08.677Z,19.00
2017-07-07T02:28:09.403Z,29.00
2017-07-07T02:29:10.132Z,19.00
2017-07-07T02:30:10.861Z,21.00
2017-07-07T02:31:11.610Z,22.00
2017-07-07T02:32:12.341Z,17.00
2017-07-07T02:33:13.070Z,17.00
2017-07-07T02:34:13.793Z,18.00
2017-07-07T02:35:14.525Z,16.00
2017-07-07T02:36:15.250Z,26.00
2017-07-07T02:37:15.983Z,22.00
2017-07-07T02:38:16.707Z,21.00
2017-07-07T02:39:17.436Z,27.00
2017-07-07T02:40:18.162Z,29.00
2017-07-07T02:41:18.915Z,38.00
2017-07-07T02:42:19.646Z,18.00
2017-07-07T02:43:20.373Z,14.00
2017-07-07T02:44:21.102Z,23.00
2017-07-07T02:45:21.827Z,17.00
2017-07-07T02:46:22.555Z,20.00
2017-07-07T02:47:23.279Z,18.00
2017-07-07T02:48:24.008Z,18.00
2017-07-07T02:49:24.737Z,21.00
2017-07-07T02:50:25.463Z,33.00
2017-07-07T02:51:26.194Z,19.00
2017-07-07T02:52:26.923Z,43.00
2017-07-07T02:53:27.649Z,23.00
2017-07-07T02:54:28.380Z,14.00
2017-07-07T02:55:29.104Z,22.00
2017-07-07T02:56:29.836Z,20.00
2017-07-07T02:57:30.559Z,25.00
2017-07-07T02:58:31.288Z,18.00
2017-07-07T02:59:32.016Z,21.00
2017-07-07T03:00:32.747Z,26.00
2017-07-07T03:01:33.499Z,23.00
2017-07-07T03:02:34.231Z,26.00
2017-07-07T03:03:34.956Z,20.00
2017-07-07T03:04:35.686Z,22.00
2017-07-07T03:05:36.414Z,27.00
2017-07-07T03:06:37.143Z,26.00
2017-07-07T03:07:37.897Z,18.00
2017-07-07T03:08:38.626Z,27.00
2017-07-07T03:09:39.356Z,22.00
2017-07-07T03:10:40.087Z,22.00
2017-07-07T03:11:40.818Z,21.00
2017-07-07T03:12:41.548Z,22.00
2017-07-07T03:13:42.272Z,29.00
2017-07-07T03:14:43.004Z,22.00
2017-07-07T03:15:43.734Z,24.00
2017-07-07T03:16:44.459Z,32.00
2017-07-07T03:17:45.191Z,27.00
2017-07-07T03:18:45.947Z,25.00
2017-07-07T03:19:46.678Z,25.00
2017-07-07T03:20:47.406Z,26.00
2017-07-07T03:21:48.189Z,18.00
2017-07-07T03:22:48.866Z,20.00
2017-07-07T03:23:49.593Z,37.00
2017-07-07T03:24:50.324Z,38.00
2017-07-07T03:25:51.052Z,28.00
2017-07-07T03:26:51.785Z,25.00
2017-07-07T03:27:52.514Z,24.00
2017-07-07T03:28:53.243Z,26.00
2017-07-07T03:29:53.975Z,35.00
2017-07-07T03:30:54.701Z,23.00
2017-07-07T03:31:55.428Z,21.00
2017-07-07T03:32:56.156Z,24.00
2017-07-07T03:33:56.884Z,30.00
2017-07-07T03:34:57.639Z,28.00
2017-07-07T03:35:58.393Z,33.00
2017-07-07T03:36:59.118Z,31.00
2017-07-07T03:37:59.848Z,24.00
2017-07-07T03:39:00.598Z,31.00
2017-07-07T03:40:01.330Z,30.00
2017-07-07T03:41:02.081Z,31.00
2017-07-07T03:42:02.836Z,25.00
2017-07-07T03:43:03.564Z,27.00
2017-07-07T03:44:04.296Z,33.00
2017-07-07T03:45:05.020Z,33.00
2017-07-07T03:46:05.769Z,48.00
2017-07-07T03:47:06.497Z,36.00
2017-07-07T03:48:07.225Z,31.00
2017-07-07T03:49:07.956Z,48.00
2017-07-07T03:50:08.686Z,43.00
2017-07-07T03:51:09.419Z,37.00
2017-07-07T03:52:10.143Z,45.00
2017-07-07T03:53:10.871Z,33.00
2017-07-07T03:54:11.602Z,36.00
2017-07-07T03:55:12.330Z,31.00
2017-07-07T03:56:13.059Z,38.00
2017-07-07T03:57:13.790Z,34.00
2017-07-07T03:58:14.521Z,31.00
2017-07-07T03:59:15.251Z,29.00
2017-07-07T04:00:15.985Z,33.00
2017-07-07T04:01:16.714Z,29.00
2017-07-07T04:02:17.444Z,28.00
2017-07-07T04:03:18.176Z,28.00
2017-07-07T04:04:18.908Z,33.00
2017-07-07T04:05:19.639Z,34.00
2017-07-07T04:06:20.365Z,31.00
2017-07-07T04:07:21.098Z,31.00
2017-07-07T04:08:21.829Z,24.00
2017-07-07T04:09:22.559Z,37.00
2017-07-07T04:10:23.292Z,24.00
2017-07-07T04:11:24.028Z,23.00
2017-07-07T04:12:24.758Z,21.00
2017-07-07T04:13:25.486Z,19.00
2017-07-07T04:14:26.220Z,20.00
2017-07-07T04:15:26.945Z,12.00
2017-07-07T04:16:27.681Z,16.00
2017-07-07T04:17:28.410Z,23.00
2017-07-07T04:18:29.164Z,37.00
2017-07-07T04:19:29.899Z,21.00
2017-07-07T04:20:30.657Z,23.00
2017-07-07T04:21:31.416Z,22.00
2017-07-07T04:22:32.146Z,21.00
2017-07-07T04:23:32.875Z,21.00
2017-07-07T04:24:33.608Z,19.00
2017-07-07T04:25:34.340Z,24.00
2017-07-07T04:26:35.092Z,21.00
2017-07-07T04:27:35.828Z,20.00
2017-07-07T04:28:36.558Z,24.00
2017-07-07T04:29:37.318Z,23.00
2017-07-07T04:30:38.046Z,20.00
2017-07-07T04:31:38.781Z,24.00
2017-07-07T04:32:39.510Z,25.00
2017-07-07T04:33:40.245Z,30.00
2017-07-07T04:34:40.982Z,19.00
2017-07-07T04:35:41.713Z,23.00
2017-07-07T04:36:42.444Z,17.00
2017-07-07T04:37:43.202Z,19.00
2017-07-07T04:38:43.935Z,20.00
2017-07-07T04:39:44.667Z,18.00
2017-07-07T04:40:45.404Z,17.00
2017-07-07T04:41:46.134Z,22.00
2017-07-07T04:42:46.891Z,18.00
2017-07-07T04:43:47.623Z,16.00
2017-07-07T04:44:48.359Z,18.00
2017-07-07T04:45:49.089Z,19.00
2017-07-07T04:46:49.821Z,16.00
2017-07-07T04:47:50.579Z,19.00
2017-07-07T04:48:51.316Z,16.00
2017-07-07T04:49:52.049Z,15.00
2017-07-07T04:50:52.781Z,20.00
2017-07-07T04:51:53.515Z,22.00
2017-07-07T04:52:54.249Z,26.00
2017-07-07T04:53:54.982Z,16.00
2017-07-07T04:54:55.718Z,26.00
2017-07-07T04:55:56.448Z,24.00
2017-07-07T04:56:57.183Z,17.00
2017-07-07T04:57:57.917Z,17.00
2017-07-07T04:58:58.654Z,15.00
2017-07-07T04:59:59.386Z,20.00
2017-07-07T05:01:00.119Z,24.00
2017-07-07T05:02:00.854Z,21.00
2017-07-07T05:03:01.591Z,21.00
2017-07-07T05:04:02.325Z,21.00
2017-07-07T05:05:03.065Z,19.00
2017-07-07T05:06:03.795Z,20.00
2017-07-07T05:07:04.529Z,18.00
2017-07-07T05:08:05.261Z,22.00
2017-07-07T05:09:05.995Z,22.00
2017-07-07T05:10:06.729Z,21.00
2017-07-07T05:11:07.462Z,26.00
2017-07-07T05:12:08.201Z,32.00
2017-07-07T05:13:08.932Z,19.00
2017-07-07T05:14:09.669Z,24.00
2017-07-07T05:15:10.404Z,24.00
2017-07-07T05:16:11.137Z,18.00
2017-07-07T05:17:11.872Z,26.00
2017-07-07T05:18:12.612Z,20.00
2017-07-07T05:19:13.348Z,22.00
2017-07-07T05:20:14.085Z,15.00
2017-07-07T05:21:14.818Z,19.00
2017-07-07T05:22:15.554Z,27.00
2017-07-07T05:23:16.314Z,25.00
2017-07-07T05:24:17.046Z,20.00
2017-07-07T05:25:17.784Z,15.00
2017-07-07T05:26:18.518Z,15.00
2017-07-07T05:27:19.251Z,20.00
2017-07-07T05:28:20.012Z,15.00
2017-07-07T05:29:20.747Z,14.00
2017-07-07T05:30:21.482Z,17.00
2017-07-07T05:31:22.218Z,15.00
2017-07-07T05:32:22.947Z,16.00
2017-07-07T05:33:23.681Z,10.00
2017-07-07T05:34:24.417Z,15.00
2017-07-07T05:35:25.149Z,9.00
2017-07-07T05:36:25.886Z,16.00
2017-07-07T05:37:26.614Z,9.00
2017-07-07T05:38:27.345Z,14.00
2017-07-07T05:39:28.082Z,13.00
2017-07-07T05:40:28.819Z,11.00
2017-07-07T05:41:29.558Z,14.00
2017-07-07T05:42:30.284Z,11.00
2017-07-07T05:43:31.019Z,8.00
2017-07-07T05:44:31.753Z,9.00
2017-07-07T05:45:32.489Z,20.00
2017-07-07T05:46:33.245Z,19.00
2017-07-07T05:47:33.980Z,12.00
2017-07-07T05:48:34.714Z,10.00
2017-07-07T05:49:35.446Z,10.00
2017-07-07T05:50:36.186Z,14.00
2017-07-07T05:51:36.917Z,13.00
2017-07-07T05:52:37.651Z,14.00
2017-07-07T05:53:38.401Z,11.00
2017-07-07T05:54:39.136Z,9.00
2017-07-07T05:55:39.867Z,12.00
2017-07-07T05:56:40.610Z,8.00
2017-07-07T05:57:41.357Z,11.00
2017-07-07T05:58:42.094Z,12.00
2017-07-07T05:59:42.830Z,10.00
2017-07-07T06:00:43.563Z,9.00
2017-07-07T06:01:44.296Z,13.00
2017-07-07T06:02:45.025Z,9.00
2017-07-07T06:03:45.760Z,7.00
2017-07-07T06:04:46.496Z,10.00
2017-07-07T06:05:47.227Z,15.00
2017-07-07T06:06:47.966Z,20.00
2017-07-07T06:07:48.697Z,9.00
2017-07-07T06:08:49.436Z,19.00
2017-07-07T06:09:50.166Z,12.00
2017-07-07T06:10:50.895Z,7.00
2017-07-07T06:11:51.631Z,16.00
2017-07-07T06:12:52.363Z,11.00
2017-07-07T06:13:53.100Z,11.00
2017-07-07T06:14:53.829Z,17.00
2017-07-07T06:15:54.565Z,12.00
2017-07-07T06:16:55.315Z,18.00
2017-07-07T06:17:56.049Z,17.00
2017-07-07T06:18:56.785Z,6.00
2017-07-07T06:19:57.518Z,7.00
2017-07-07T06:20:58.255Z,10.00
2017-07-07T06:21:58.980Z,9.00
2017-07-07T06:22:59.719Z,12.00
2017-07-07T06:24:00.456Z,6.00
2017-07-07T06:25:01.192Z,6.00
2017-07-07T06:26:01.948Z,6.00
2017-07-07T06:27:02.681Z,10.00
2017-07-07T06:28:03.411Z,6.00
2017-07-07T06:29:04.149Z,11.00
2017-07-07T06:30:04.911Z,8.00
2017-07-07T06:31:05.642Z,7.00
2017-07-07T06:32:06.379Z,10.00
2017-07-07T06:33:07.112Z,10.00
2017-07-07T06:34:07.850Z,10.00
2017-07-07T06:35:08.600Z,6.00
2017-07-07T06:36:09.341Z,19.00
2017-07-07T06:37:10.070Z,10.00
2017-07-07T06:38:10.805Z,7.00
2017-07-07T06:39:11.541Z,15.00
2017-07-07T06:40:12.274Z,18.00
2017-07-07T06:41:13.006Z,6.00
2017-07-07T06:42:13.747Z,11.00
2017-07-07T06:43:14.477Z,17.00
2017-07-07T06:44:15.237Z,12.00
2017-07-07T06:45:15.972Z,15.00
2017-07-07T06:46:16.708Z,17.00
2017-07-07T06:47:17.438Z,12.00
2017-07-07T06:48:18.172Z,31.00
2017-07-07T06:49:18.910Z,30.00
2017-07-07T06:50:19.642Z,16.00
2017-07-07T06:51:20.380Z,18.00
2017-07-07T06:52:21.114Z,16.00
2017-07-07T06:53:21.870Z,18.00
2017-07-07T06:54:22.604Z,15.00
2017-07-07T06:55:23.339Z,15.00
2017-07-07T06:56:24.074Z,10.00
2017-07-07T06:57:24.812Z,13.00
2017-07-07T06:58:25.546Z,15.00
2017-07-07T06:59:26.282Z,9.00
2017-07-07T07:00:27.016Z,21.00
2017-07-07T07:01:27.752Z,19.00
2017-07-07T07:02:28.485Z,9.00
2017-07-07T07:03:29.221Z,10.00
2017-07-07T07:04:29.958Z,10.00
2017-07-07T07:05:30.693Z,14.00
2017-07-07T07:06:31.429Z,19.00
2017-07-07T07:07:32.163Z,9.00
2017-07-07T07:08:32.899Z,13.00
2017-07-07T07:09:33.635Z,12.00
2017-07-07T07:10:34.372Z,12.00
2017-07-07T07:11:35.102Z,17.00
2017-07-07T07:12:35.842Z,25.00
2017-07-07T07:13:36.578Z,28.00
2017-07-07T07:14:37.315Z,11.00
2017-07-07T07:15:38.052Z,17.00
2017-07-07T07:16:38.789Z,13.00
2017-07-07T07:17:39.525Z,14.00
2017-07-07T07:18:40.259Z,11.00
2017-07-07T07:19:40.997Z,11.00
2017-07-07T07:20:41.733Z,32.00
2017-07-07T07:21:42.467Z,13.00
2017-07-07T07:22:43.231Z,15.00
2017-07-07T07:23:43.970Z,22.00
2017-07-07T07:24:44.706Z,14.00
2017-07-07T07:25:45.444Z,11.00
2017-07-07T07:26:46.184Z,12.00
2017-07-07T07:27:46.919Z,8.00
2017-07-07T07:28:47.658Z,10.00
2017-07-07T07:29:48.396Z,10.00
2017-07-07T07:30:49.132Z,14.00
2017-07-07T07:31:49.870Z,20.00
2017-07-07T07:32:50.615Z,17.00
2017-07-07T07:33:51.349Z,13.00
2017-07-07T07:34:52.114Z,16.00
2017-07-07T07:35:52.878Z,20.00
2017-07-07T07:36:53.638Z,13.00
2017-07-07T07:37:54.378Z,24.00
2017-07-07T07:38:55.141Z,17.00
2017-07-07T07:39:55.902Z,13.00
2017-07-07T07:40:56.646Z,13.00
2017-07-07T07:41:57.388Z,16.00
2017-07-07T07:42:58.127Z,11.00
2017-07-07T07:43:58.868Z,13.00
2017-07-07T07:44:59.610Z,17.00
2017-07-07T07:46:00.354Z,15.00
2017-07-07T07:47:01.093Z,11.00
2017-07-07T07:48:01.837Z,18.00
2017-07-07T07:49:02.579Z,8.00
2017-07-07T07:50:03.316Z,15.00
2017-07-07T07:51:04.056Z,9.00
2017-07-07T07:52:04.799Z,11.00
2017-07-07T07:53:05.538Z,14.00
2017-07-07T07:54:06.278Z,13.00
2017-07-07T07:55:07.037Z,8.00
2017-07-07T07:56:07.778Z,13.00
2017-07-07T07:57:08.540Z,10.00
2017-07-07T07:58:09.285Z,11.00
2017-07-07T07:59:10.043Z,14.00
2017-07-07T08:00:10.781Z,15.00
2017-07-07T08:01:11.525Z,18.00
2017-07-07T08:02:12.267Z,16.00
2017-07-07T08:03:13.007Z,15.00
2017-07-07T08:04:13.759Z,29.00
2017-07-07T08:05:14.499Z,18.00
2017-07-07T08:06:15.262Z,15.00
2017-07-07T08:07:16.009Z,37.00
2017-07-07T08:08:16.752Z,16.00
2017-07-07T08:09:17.491Z,17.00
2017-07-07T08:10:18.235Z,13.00
2017-07-07T08:11:18.976Z,11.00
2017-07-07T08:12:19.720Z,12.00
2017-07-07T08:13:20.464Z,17.00
2017-07-07T08:14:21.208Z,21.00
2017-07-07T08:15:21.952Z,14.00
2017-07-07T08:16:22.690Z,10.00
2017-07-07T08:17:23.431Z,10.00
2017-07-07T08:18:24.169Z,13.00
2017-07-07T08:19:24.914Z,16.00
2017-07-07T08:20:25.655Z,29.00
2017-07-07T08:21:26.401Z,12.00
2017-07-07T08:22:27.171Z,13.00
2017-07-07T08:23:27.914Z,14.00
2017-07-07T08:24:28.656Z,10.00
2017-07-07T08:25:29.402Z,13.00
2017-07-07T08:26:30.149Z,11.00
2017-07-07T08:27:30.897Z,18.00
2017-07-07T08:28:31.641Z,20.00
2017-07-07T08:29:32.386Z,14.00
2017-07-07T08:30:33.131Z,17.00
2017-07-07T08:31:33.878Z,10.00
2017-07-07T08:32:34.622Z,13.00
2017-07-07T08:33:35.366Z,18.00
2017-07-07T08:34:36.118Z,13.00
2017-07-07T08:35:36.863Z,14.00
2017-07-07T08:36:37.608Z,15.00
2017-07-07T08:37:38.359Z,17.00
2017-07-07T08:38:39.105Z,16.00
2017-07-07T08:39:39.854Z,17.00
2017-07-07T08:40:40.624Z,18.00
2017-07-07T08:41:41.391Z,17.00
2017-07-07T08:42:42.138Z,11.00
2017-07-07T08:43:42.886Z,25.00
2017-07-07T08:44:43.629Z,9.00
2017-07-07T08:45:44.384Z,16.00
2017-07-07T08:46:45.130Z,13.00
2017-07-07T08:47:45.874Z,11.00
2017-07-07T08:48:46.618Z,9.00
2017-07-07T08:49:47.370Z,12.00
2017-07-07T08:50:48.120Z,18.00
2017-07-07T08:51:48.866Z,15.00
2017-07-07T08:52:49.619Z,12.00
2017-07-07T08:53:50.379Z,16.00
2017-07-07T08:54:51.136Z,18.00
2017-07-07T08:55:51.911Z,10.00
2017-07-07T08:56:52.668Z,12.00
2017-07-07T08:57:53.421Z,14.00
2017-07-07T08:58:54.183Z,14.00
2017-07-07T08:59:54.940Z,14.00
2017-07-07T09:00:55.690Z,12.00
2017-07-07T09:01:56.451Z,11.00
2017-07-07T09:02:57.204Z,15.00
2017-07-07T09:03:57.962Z,13.00
2017-07-07T09:04:58.716Z,10.00
2017-07-07T09:05:59.471Z,15.00
2017-07-07T09:07:00.227Z,11.00
2017-07-07T09:08:00.982Z,19.00
2017-07-07T09:09:01.742Z,14.00
2017-07-07T09:10:02.492Z,13.00
2017-07-07T09:11:03.244Z,8.00
2017-07-07T09:12:04.000Z,11.00
2017-07-07T09:13:04.751Z,11.00
2017-07-07T09:14:05.510Z,11.00
2017-07-07T09:15:06.264Z,18.00
2017-07-07T09:16:07.015Z,16.00
2017-07-07T09:17:07.765Z,18.00
2017-07-07T09:18:08.517Z,12.00
2017-07-07T09:19:09.270Z,16.00
2017-07-07T09:20:10.025Z,14.00
2017-07-07T09:21:10.780Z,8.00
2017-07-07T09:22:11.558Z,15.00
2017-07-07T09:23:12.310Z,9.00
2017-07-07T09:24:13.086Z,19.00
2017-07-07T09:25:13.846Z,22.00
2017-07-07T09:26:14.601Z,13.00
2017-07-07T09:27:15.354Z,15.00
2017-07-07T09:28:16.110Z,21.00
2017-07-07T09:29:16.869Z,12.00
2017-07-07T09:30:17.626Z,15.00
2017-07-07T09:31:18.378Z,16.00
2017-07-07T09:32:19.131Z,10.00
2017-07-07T09:33:19.888Z,13.00
2017-07-07T09:34:20.637Z,12.00
2017-07-07T09:35:21.394Z,12.00
2017-07-07T09:36:22.152Z,18.00
2017-07-07T09:37:22.909Z,18.00
2017-07-07T09:38:23.661Z,12.00
2017-07-07T09:39:24.421Z,15.00
2017-07-07T09:40:25.175Z,13.00
2017-07-07T09:41:25.925Z,8.00
2017-07-07T09:42:26.680Z,20.00
2017-07-07T09:43:27.435Z,8.00
2017-07-07T09:44:28.194Z,13.00
2017-07-07T09:45:28.947Z,13.00
2017-07-07T09:46:29.699Z,8.00
2017-07-07T09:47:30.447Z,12.00
2017-07-07T09:48:31.203Z,13.00
2017-07-07T09:49:31.950Z,9.00
2017-07-07T09:50:32.705Z,10.00
2017-07-07T09:51:33.456Z,13.00
2017-07-07T09:52:34.209Z,15.00
2017-07-07T09:53:34.963Z,10.00
2017-07-07T09:54:35.719Z,21.00
2017-07-07T09:55:36.471Z,12.00
2017-07-07T09:56:37.221Z,12.00
2017-07-07T09:57:37.979Z,19.00
2017-07-07T09:58:38.734Z,13.00
2017-07-07T09:59:39.484Z,9.00
2017-07-07T10:00:40.242Z,21.00
2017-07-07T10:01:40.995Z,11.00
2017-07-07T10:02:41.751Z,14.00
2017-07-07T10:03:42.503Z,25.00
2017-07-07T10:04:43.255Z,8.00
2017-07-07T10:05:44.009Z,9.00
2017-07-07T10:06:44.758Z,14.00
2017-07-07T10:07:45.509Z,11.00
2017-07-07T10:08:46.262Z,20.00
2017-07-07T10:09:47.014Z,9.00
2017-07-07T10:10:47.766Z,11.00
2017-07-07T10:11:48.520Z,13.00
2017-07-07T10:12:49.268Z,7.00
2017-07-07T10:13:50.019Z,10.00
2017-07-07T10:14:50.768Z,9.00
2017-07-07T10:15:51.521Z,8.00
2017-07-07T10:16:52.274Z,20.00
2017-07-07T10:17:53.022Z,9.00
2017-07-07T10:18:53.781Z,11.00
2017-07-07T10:19:54.538Z,11.00
2017-07-07T10:20:55.286Z,9.00
2017-07-07T10:21:56.035Z,19.00
2017-07-07T10:22:56.803Z,14.00
2017-07-07T10:23:57.560Z,15.00
2017-07-07T10:24:58.313Z,16.00
2017-07-07T10:25:59.065Z,17.00
2017-07-07T10:26:59.817Z,10.00
2017-07-07T10:28:00.573Z,22.00
2017-07-07T10:29:01.329Z,14.00
2017-07-07T10:30:02.084Z,17.00
2017-07-07T10:31:02.831Z,18.00
2017-07-07T10:32:03.579Z,9.00
2017-07-07T10:33:04.333Z,15.00
2017-07-07T10:34:05.089Z,9.00
2017-07-07T10:35:05.845Z,17.00
2017-07-07T10:36:06.600Z,13.00
2017-07-07T10:37:07.352Z,17.00
2017-07-07T10:38:08.104Z,16.00
2017-07-07T10:39:08.851Z,9.00
2017-07-07T10:40:09.606Z,16.00
2017-07-07T10:41:10.354Z,20.00
2017-07-07T10:42:11.105Z,12.00
2017-07-07T10:43:11.857Z,10.00
2017-07-07T10:44:12.612Z,13.00
2017-07-07T10:45:13.363Z,9.00
2017-07-07T10:46:14.113Z,13.00
2017-07-07T10:47:14.866Z,13.00
2017-07-07T10:48:15.621Z,12.00
2017-07-07T10:49:16.368Z,13.00
2017-07-07T10:50:17.120Z,15.00
2017-07-07T10:51:17.869Z,9.00
2017-07-07T10:52:18.627Z,9.00
2017-07-07T10:53:19.379Z,10.00
2017-07-07T10:54:20.133Z,11.00
2017-07-07T10:55:20.886Z,13.00
2017-07-07T10:56:21.642Z,16.00
2017-07-07T10:57:22.397Z,21.00
2017-07-07T10:58:23.157Z,25.00
2017-07-07T10:59:23.910Z,16.00
2017-07-07T11:00:24.659Z,11.00
2017-07-07T11:01:25.414Z,16.00
2017-07-07T11:02:26.169Z,10.00
2017-07-07T11:03:26.917Z,20.00
2017-07-07T11:04:27.673Z,15.00
2017-07-07T11:05:28.424Z,15.00
2017-07-07T11:06:29.176Z,11.00
2017-07-07T11:07:29.938Z,26.00
2017-07-07T11:08:30.688Z,15.00
2017-07-07T11:09:31.435Z,18.00
2017-07-07T11:10:32.185Z,18.00
2017-07-07T11:11:32.944Z,14.00
2017-07-07T11:12:33.690Z,17.00
2017-07-07T11:13:34.445Z,16.00
2017-07-07T11:14:35.195Z,12.00
2017-07-07T11:15:35.970Z,14.00
2017-07-07T11:16:36.726Z,15.00
2017-07-07T11:17:37.477Z,19.00
2017-07-07T11:18:38.230Z,20.00
2017-07-07T11:19:38.985Z,14.00
2017-07-07T11:20:39.732Z,18.00
2017-07-07T11:21:40.485Z,12.00
2017-07-07T11:22:41.240Z,16.00
2017-07-07T11:23:41.997Z,20.00
2017-07-07T11:24:42.754Z,16.00
2017-07-07T11:25:43.503Z,17.00
2017-07-07T11:26:44.258Z,16.00
2017-07-07T11:27:45.014Z,24.00
2017-07-07T11:28:45.766Z,24.00
2017-07-07T11:29:46.518Z,15.00
2017-07-07T11:30:47.269Z,30.00
2017-07-07T11:31:48.022Z,14.00
2017-07-07T11:32:48.770Z,19.00
2017-07-07T11:33:49.525Z,17.00
2017-07-07T11:34:50.274Z,14.00
2017-07-07T11:35:51.029Z,14.00
2017-07-07T11:36:51.786Z,21.00
2017-07-07T11:37:52.541Z,19.00
2017-07-07T11:38:53.295Z,14.00
2017-07-07T11:39:54.052Z,12.00
2017-07-07T11:40:54.805Z,13.00
2017-07-07T11:41:55.555Z,21.00
2017-07-07T11:42:56.309Z,25.00
2017-07-07T11:43:57.062Z,19.00
2017-07-07T11:44:57.811Z,14.00
2017-07-07T11:45:58.564Z,19.00
2017-07-07T11:46:59.316Z,12.00
2017-07-07T11:48:00.067Z,19.00
2017-07-07T11:49:00.817Z,11.00
2017-07-07T11:50:01.567Z,15.00
2017-07-07T11:51:02.319Z,16.00
2017-07-07T11:52:03.073Z,22.00
2017-07-07T11:53:03.827Z,16.00
2017-07-07T11:54:04.582Z,13.00
2017-07-07T11:55:05.334Z,12.00
2017-07-07T11:56:06.078Z,11.00
2017-07-07T11:57:06.833Z,12.00
2017-07-07T11:58:07.574Z,19.00
2017-07-07T11:59:08.319Z,16.00
2017-07-07T12:00:09.071Z,20.00
2017-07-07T12:01:09.816Z,13.00
2017-07-07T12:02:10.560Z,14.00
2017-07-07T12:03:11.304Z,21.00
2017-07-07T12:04:12.045Z,19.00
2017-07-07T12:05:12.809Z,12.00
2017-07-07T12:06:13.555Z,14.00
2017-07-07T12:07:14.302Z,24.00
2017-07-07T12:08:15.044Z,13.00
2017-07-07T12:09:15.785Z,29.00
2017-07-07T12:10:16.531Z,18.00
2017-07-07T12:11:17.277Z,19.00
2017-07-07T12:12:18.026Z,18.00
2017-07-07T12:13:18.773Z,15.00
2017-07-07T12:14:19.517Z,20.00
2017-07-07T12:15:20.263Z,13.00
2017-07-07T12:16:21.013Z,16.00
2017-07-07T12:17:21.760Z,16.00
2017-07-07T12:18:22.518Z,18.00
2017-07-07T12:19:23.267Z,17.00
2017-07-07T12:20:24.025Z,19.00
2017-07-07T12:21:24.778Z,15.00
2017-07-07T12:22:25.529Z,10.00
2017-07-07T12:23:26.287Z,14.00
2017-07-07T12:24:27.040Z,14.00
2017-07-07T12:25:27.794Z,15.00
2017-07-07T12:26:28.546Z,13.00
2017-07-07T12:27:29.300Z,14.00
2017-07-07T12:28:30.045Z,13.00
2017-07-07T12:29:30.793Z,13.00
2017-07-07T12:30:31.545Z,14.00
2017-07-07T12:31:32.294Z,18.00
2017-07-07T12:32:33.043Z,20.00
2017-07-07T12:33:33.791Z,23.00
2017-07-07T12:34:34.548Z,21.00
2017-07-07T12:35:35.299Z,14.00
2017-07-07T12:36:36.055Z,20.00
2017-07-07T12:37:36.814Z,19.00
2017-07-07T12:38:37.568Z,13.00
2017-07-07T12:39:38.325Z,15.00
2017-07-07T12:40:39.079Z,13.00
2017-07-07T12:41:39.831Z,19.00
2017-07-07T12:42:40.582Z,18.00
2017-07-07T12:43:41.357Z,16.00
2017-07-07T12:44:42.114Z,18.00
2017-07-07T12:45:42.868Z,14.00
2017-07-07T12:46:43.614Z,19.00
2017-07-07T12:47:44.372Z,16.00
2017-07-07T12:48:45.123Z,19.00
2017-07-07T12:49:45.877Z,18.00
2017-07-07T12:50:46.630Z,12.00
2017-07-07T12:51:47.379Z,16.00
2017-07-07T12:52:48.138Z,10.00
2017-07-07T12:53:48.892Z,10.00
2017-07-07T12:54:49.649Z,15.00
2017-07-07T12:55:50.398Z,12.00
2017-07-07T12:56:51.154Z,13.00
2017-07-07T12:57:51.908Z,15.00
2017-07-07T12:58:52.691Z,13.00
2017-07-07T12:59:53.441Z,16.00
2017-07-07T13:00:54.192Z,13.00
2017-07-07T13:01:54.946Z,17.00
2017-07-07T13:02:55.702Z,18.00
2017-07-07T13:03:56.452Z,13.00
2017-07-07T13:04:57.203Z,17.00